East Middlebury, Vermont
Current Conditions -  °F | °C
As of 11:35 AM on Friday 19 Dec 2014 (Local Time) from K6B0 Reporting Station
Overcast Overcast  
Wind Chill: -8°   Ceiling: 2400
Heat Index: -3°   Visibility: 10mi
Dew Point: -7°   Wind: 10mph
Humidity: 75%   Direction: 350°N
Pressure: 30.03"   Gusts: NA
Location:  43.97°N, 73.11°W
Report Text: K6B0 191635Z AUTO 35009KT 10SM OVC024 M03/M06 A3003 RMK AO2 T10261065
Loading
Personal Weather Stations






























Interactive Weather Map New forecast layout! Learn more

10-Day Weather Forecast

Advertisements
Track Severe Weather on mobile